Time;durP1;ratioP1;P1;durP2;ratioP2;P2;SDS_P1;SDS_P2;PMS_P1;PMS_P2;Temp;Humidity;BMP_temperature;BMP_pressure;BME280_temperature;BME280_humidity;BME280_pressure;Samples;Min_cycle;Max_cycle;Signal;HPM_P1;HPM_P2
2022/10/07 00:01:28;;;;;;;8.48;2.60;;;10.50;99.90;;;;;;5073276;28;20405;-74
2022/10/07 00:03:54;;;;;;;12.02;2.75;;;10.50;99.90;;;;;;5074354;28;20036;-74
2022/10/07 00:06:21;;;;;;;7.75;1.85;;;10.60;99.90;;;;;;5073166;28;20044;-74
2022/10/07 00:08:51;;;;;;;8.07;2.55;;;10.50;99.90;;;;;;5073312;28;20055;-74
2022/10/07 00:11:25;;;;;;;15.00;1.90;;;10.50;99.90;;;;;;5072898;28;20037;-74
2022/10/07 00:14:00;;;;;;;5.55;1.80;;;10.40;99.90;;;;;;5073152;28;20048;-74
2022/10/07 00:16:29;;;;;;;9.30;2.13;;;10.40;99.90;;;;;;5073128;28;20048;-74
2022/10/07 00:18:56;;;;;;;8.95;3.13;;;10.40;99.90;;;;;;5056314;28;20076;-74
2022/10/07 00:21:22;;;;;;;8.32;2.20;;;10.40;99.90;;;;;;5073352;28;20452;-74
2022/10/07 00:23:48;;;;;;;10.50;1.92;;;10.40;99.90;;;;;;5072623;28;20045;-74
2022/10/07 00:26:20;;;;;;;12.95;2.05;;;10.40;99.90;;;;;;5072186;28;20127;-74
2022/10/07 00:28:46;;;;;;;11.05;2.17;;;10.30;99.90;;;;;;5072862;28;20051;-74
2022/10/07 00:31:15;;;;;;;7.50;2.97;;;10.40;99.90;;;;;;5074011;28;20040;-74
2022/10/07 00:33:41;;;;;;;9.20;3.00;;;10.40;99.90;;;;;;5072427;28;20076;-74
2022/10/07 00:36:12;;;;;;;10.57;2.70;;;10.30;99.90;;;;;;5073028;28;20044;-74
2022/10/07 00:38:38;;;;;;;9.90;3.88;;;10.30;99.90;;;;;;5073854;28;20036;-73
2022/10/07 00:41:04;;;;;;;10.57;2.38;;;10.30;99.90;;;;;;5072613;28;20079;-73
2022/10/07 00:43:31;;;;;;;12.00;3.75;;;10.30;99.90;;;;;;5072177;28;20037;-73
2022/10/07 00:46:03;;;;;;;10.40;2.72;;;10.20;99.90;;;;;;5072534;28;20086;-73
2022/10/07 00:48:31;;;;;;;9.30;3.30;;;10.20;99.90;;;;;;5072522;28;20042;-73
2022/10/07 00:50:59;;;;;;;11.30;3.08;;;10.20;99.90;;;;;;5072697;28;20508;-73
2022/10/07 00:53:29;;;;;;;8.73;2.97;;;10.20;99.90;;;;;;5071941;28;20033;-73
2022/10/07 00:55:56;;;;;;;10.18;3.08;;;10.30;99.90;;;;;;5072642;28;20044;-73
2022/10/07 00:58:23;;;;;;;9.38;3.20;;;10.20;99.90;;;;;;5072330;28;20044;-73
2022/10/07 01:00:49;;;;;;;10.38;3.00;;;10.20;99.90;;;;;;5072166;28;20076;-73
2022/10/07 01:03:15;;;;;;;11.52;2.85;;;10.20;99.90;;;;;;5072053;28;20076;-73
2022/10/07 01:05:42;;;;;;;12.68;2.90;;;10.20;99.90;;;;;;5072114;28;20048;-73
2022/10/07 01:08:08;;;;;;;13.20;3.78;;;10.20;99.90;;;;;;5072116;28;20055;-74
2022/10/07 01:10:51;;;;;;;10.90;2.92;;;10.20;99.90;;;;;;5072026;28;20044;-73
2022/10/07 01:13:21;;;;;;;10.57;3.22;;;10.30;99.90;;;;;;5071392;28;20037;-73
2022/10/07 01:15:56;;;;;;;10.25;3.08;;;10.20;99.90;;;;;;5071945;28;20048;-73
2022/10/07 01:18:46;;;;;;;13.80;3.38;;;10.20;99.90;;;;;;5072129;28;20403;-73
2022/10/07 01:21:49;;;;;;;11.18;3.78;;;10.20;99.90;;;;;;5071738;28;20116;-73
2022/10/07 01:24:43;;;;;;;12.87;3.73;;;10.10;99.90;;;;;;5071836;28;20405;-73
2022/10/07 01:27:21;;;;;;;16.10;3.28;;;10.20;99.90;;;;;;5071783;28;20275;-73
2022/10/07 01:29:58;;;;;;;7.55;2.83;;;10.20;99.90;;;;;;5071471;28;20044;-73
2022/10/07 01:32:41;;;;;;;12.30;3.50;;;10.20;99.90;;;;;;5071218;28;20090;-74
2022/10/07 01:35:20;;;;;;;15.55;3.25;;;10.20;99.90;;;;;;5071541;28;20132;-73
2022/10/07 01:37:49;;;;;;;12.93;3.67;;;10.20;99.90;;;;;;5070775;28;20041;-73
2022/10/07 01:40:32;;;;;;;8.88;3.17;;;10.20;99.90;;;;;;5071519;28;20481;-73
2022/10/07 01:42:58;;;;;;;9.93;3.45;;;10.20;99.90;;;;;;5071038;28;20040;-73
2022/10/07 01:45:27;;;;;;;10.60;3.40;;;10.20;99.90;;;;;;5071652;28;20528;-73
2022/10/07 01:47:53;;;;;;;8.02;3.28;;;10.10;99.90;;;;;;5071292;28;20040;-73
2022/10/07 01:50:24;;;;;;;9.85;3.65;;;10.20;99.90;;;;;;5071197;28;20441;-73
2022/10/07 01:52:55;;;;;;;10.77;2.90;;;10.20;99.90;;;;;;5070717;28;20067;-73
2022/10/07 01:55:32;;;;;;;9.75;3.85;;;10.10;99.90;;;;;;5071279;28;20090;-73
2022/10/07 01:58:11;;;;;;;8.52;4.00;;;10.10;99.90;;;;;;5071097;28;20054;-73
2022/10/07 02:00:46;;;;;;;10.15;3.67;;;10.20;99.90;;;;;;5071286;28;20032;-73
2022/10/07 02:03:36;;;;;;;11.55;3.10;;;10.20;99.90;;;;;;5070606;28;20033;-73
2022/10/07 02:06:19;;;;;;;8.93;2.88;;;10.10;99.90;;;;;;5070942;28;20066;-73
2022/10/07 02:08:52;;;;;;;8.68;3.83;;;10.10;99.90;;;;;;5070923;28;20079;-73
2022/10/07 02:11:26;;;;;;;10.30;3.38;;;10.00;99.90;;;;;;5070692;28;20048;-73
2022/10/07 02:14:12;;;;;;;14.73;3.88;;;9.90;99.90;;;;;;5070457;28;20506;-73
2022/10/07 02:16:43;;;;;;;9.68;3.60;;;10.00;99.90;;;;;;5072191;28;20028;-73
2022/10/07 02:19:18;;;;;;;16.10;3.83;;;10.10;99.90;;;;;;5070975;28;20154;-73
2022/10/07 02:21:45;;;;;;;12.07;3.95;;;10.00;99.90;;;;;;5072131;28;20044;-73
2022/10/07 02:24:13;;;;;;;9.18;3.70;;;10.00;99.90;;;;;;5070282;28;20055;-73
2022/10/07 02:26:42;;;;;;;12.60;4.10;;;10.00;99.90;;;;;;5054016;28;20079;-73
2022/10/07 02:29:11;;;;;;;10.48;4.35;;;9.90;99.90;;;;;;5070912;28;20051;-73
2022/10/07 02:31:40;;;;;;;9.68;3.60;;;10.00;99.90;;;;;;5070449;28;20502;-73
2022/10/07 02:34:08;;;;;;;11.38;3.55;;;9.80;99.90;;;;;;5070294;28;20040;-73
2022/10/07 02:36:39;;;;;;;7.13;3.53;;;10.00;99.90;;;;;;5070506;28;20119;-73
2022/10/07 02:39:06;;;;;;;10.57;4.32;;;9.90;99.90;;;;;;5070771;28;20482;-73
2022/10/07 02:41:50;;;;;;;10.20;3.70;;;10.00;99.90;;;;;;5070695;28;20041;-73
2022/10/07 02:44:27;;;;;;;18.50;4.28;;;9.90;99.90;;;;;;5070212;28;20041;-73
2022/10/07 02:47:13;;;;;;;12.20;3.83;;;9.90;99.90;;;;;;5070457;28;20036;-73
2022/10/07 02:49:40;;;;;;;14.93;4.75;;;10.00;99.90;;;;;;5071568;28;20039;-73
2022/10/07 02:52:13;;;;;;;7.13;3.30;;;10.00;99.90;;;;;;5070184;28;20036;-73
2022/10/07 02:54:44;;;;;;;7.45;3.10;;;10.00;99.90;;;;;;5070183;28;20045;-74
2022/10/07 02:57:14;;;;;;;7.55;3.72;;;10.00;99.90;;;;;;5070627;28;20055;-73
2022/10/07 02:59:40;;;;;;;15.30;3.63;;;10.00;99.90;;;;;;5070428;28;20127;-73
2022/10/07 03:02:14;;;;;;;15.77;3.78;;;9.90;99.90;;;;;;5070300;28;20072;-74
2022/10/07 03:04:39;;;;;;;11.35;3.80;;;9.80;99.90;;;;;;5070005;28;20552;-74
2022/10/07 03:07:05;;;;;;;8.35;3.85;;;9.90;99.90;;;;;;5070318;28;20048;-74
2022/10/07 03:09:30;;;;;;;14.00;4.20;;;10.00;99.90;;;;;;5071466;28;20647;-74
2022/10/07 03:11:56;;;;;;;11.07;3.55;;;10.00;99.90;;;;;;5069911;28;20036;-73
2022/10/07 03:14:23;;;;;;;13.07;3.85;;;9.90;99.90;;;;;;5070069;28;20059;-73
2022/10/07 03:16:50;;;;;;;11.55;3.85;;;9.90;99.90;;;;;;5070181;28;20047;-73
2022/10/07 03:19:16;;;;;;;8.50;3.50;;;9.90;99.90;;;;;;5070163;28;20078;-73
2022/10/07 03:21:41;;;;;;;18.25;5.15;;;9.90;99.90;;;;;;5069032;28;20036;-74
2022/10/07 03:24:07;;;;;;;16.10;4.07;;;10.00;99.90;;;;;;5069837;28;20122;-74
2022/10/07 03:26:34;;;;;;;10.75;4.22;;;9.90;99.90;;;;;;5071152;28;20044;-74
2022/10/07 03:29:00;;;;;;;17.00;4.05;;;9.80;99.90;;;;;;5069972;28;20410;-74
2022/10/07 03:31:26;;;;;;;12.85;4.28;;;9.80;99.90;;;;;;5069886;28;20047;-74
2022/10/07 03:33:56;;;;;;;18.55;5.00;;;9.80;99.90;;;;;;5069663;28;20037;-74
2022/10/07 03:36:22;;;;;;;11.88;4.32;;;9.80;99.90;;;;;;5070090;28;20079;-74
2022/10/07 03:38:48;;;;;;;11.43;4.30;;;9.70;99.90;;;;;;5069801;28;20064;-74
2022/10/07 03:41:15;;;;;;;10.38;4.32;;;9.70;99.90;;;;;;5069747;28;20546;-74
2022/10/07 03:43:40;;;;;;;10.93;4.30;;;9.70;99.90;;;;;;5052915;28;20493;-74
2022/10/07 03:46:06;;;;;;;12.20;4.15;;;9.70;99.90;;;;;;5053380;28;20051;-74
2022/10/07 03:48:31;;;;;;;11.15;4.55;;;9.70;99.90;;;;;;5071196;28;20128;-74
2022/10/07 03:50:57;;;;;;;12.57;4.18;;;9.70;99.90;;;;;;5071021;28;20093;-74
2022/10/07 03:53:28;;;;;;;13.50;4.35;;;9.60;99.90;;;;;;5069312;28;20490;-74
2022/10/07 03:55:54;;;;;;;11.23;4.60;;;9.60;99.90;;;;;;5069840;28;20433;-74
2022/10/07 03:58:20;;;;;;;10.77;4.53;;;9.50;99.90;;;;;;5070019;28;20444;-74
2022/10/07 04:00:46;;;;;;;12.65;4.28;;;9.60;99.90;;;;;;5070013;28;20036;-74
2022/10/07 04:03:13;;;;;;;15.82;4.68;;;9.50;99.90;;;;;;5074038;28;20044;-74
2022/10/07 04:05:39;;;;;;;16.25;4.80;;;9.40;99.90;;;;;;5073326;28;20032;-74
2022/10/07 04:08:05;;;;;;;16.20;5.30;;;9.50;99.90;;;;;;5073145;28;20048;-73
2022/10/07 04:10:33;;;;;;;11.38;4.47;;;9.40;99.90;;;;;;5074481;28;20511;-73
2022/10/07 04:12:58;;;;;;;9.45;4.68;;;9.50;99.90;;;;;;5072752;28;20033;-73
2022/10/07 04:15:24;;;;;;;18.73;5.07;;;9.50;99.90;;;;;;5073329;28;20044;-73
2022/10/07 04:17:57;;;;;;;13.02;4.47;;;9.40;99.90;;;;;;5074279;28;20086;-73
2022/10/07 04:20:23;;;;;;;12.48;3.97;;;9.50;99.90;;;;;;5056487;28;20037;-73
2022/10/07 04:22:48;;;;;;;14.98;4.60;;;9.40;99.90;;;;;;5072799;28;20044;-73
2022/10/07 04:27:59;;;;;;;14.77;4.90;;;9.40;99.90;;;;;;5073081;28;20121;-73
2022/10/07 04:30:27;;;;;;;11.90;4.93;;;9.50;99.90;;;;;;5072652;28;20182;-73
2022/10/07 04:32:53;;;;;;;14.82;4.65;;;9.50;99.90;;;;;;5072148;28;20047;-74
2022/10/07 04:35:21;;;;;;;13.98;4.32;;;9.40;99.90;;;;;;5074001;28;20397;-74
2022/10/07 04:37:52;;;;;;;11.05;4.80;;;9.40;99.90;;;;;;5074357;28;20036;-74
2022/10/07 04:40:19;;;;;;;13.25;4.40;;;9.30;99.90;;;;;;5072734;28;20117;-73
2022/10/07 04:45:35;;;;;;;15.07;4.72;;;9.40;99.90;;;;;;5072705;28;20055;-73
2022/10/07 04:48:04;;;;;;;14.80;4.88;;;9.50;99.90;;;;;;5072536;28;20051;-73
2022/10/07 04:50:31;;;;;;;15.13;4.65;;;9.40;99.90;;;;;;5072459;28;20044;-73
2022/10/07 04:52:57;;;;;;;11.73;4.95;;;9.30;99.90;;;;;;5072046;28;20064;-73
2022/10/07 04:55:25;;;;;;;12.85;4.45;;;9.30;99.90;;;;;;5072393;28;20041;-73
2022/10/07 04:57:51;;;;;;;14.07;4.70;;;9.40;99.90;;;;;;5072350;28;20040;-73
2022/10/07 05:00:17;;;;;;;10.85;4.43;;;9.50;99.90;;;;;;5072457;28;20174;-73
2022/10/07 05:02:45;;;;;;;15.90;4.38;;;9.50;99.90;;;;;;5072064;28;20474;-73
2022/10/07 05:05:10;;;;;;;14.63;4.63;;;9.40;99.90;;;;;;5072157;28;20516;-73
2022/10/07 05:07:36;;;;;;;13.80;4.53;;;9.50;99.90;;;;;;5072129;28;20040;-73
2022/10/07 05:10:02;;;;;;;20.02;6.28;;;9.50;99.90;;;;;;5072014;28;20052;-73
2022/10/07 05:12:27;;;;;;;15.60;4.80;;;9.40;99.90;;;;;;5071226;28;20383;-73
2022/10/07 05:14:53;;;;;;;14.48;5.75;;;9.50;99.90;;;;;;5071801;28;20398;-73
2022/10/07 05:17:19;;;;;;;19.23;7.35;;;9.40;99.90;;;;;;5071919;28;20036;-73
2022/10/07 05:19:44;;;;;;;13.65;5.45;;;9.40;99.90;;;;;;5072120;28;20049;-73
2022/10/07 05:22:10;;;;;;;16.25;5.50;;;9.50;99.90;;;;;;5071699;28;20486;-73
2022/10/07 05:24:35;;;;;;;13.23;4.57;;;9.30;99.90;;;;;;5072920;28;20078;-73
2022/10/07 05:27:01;;;;;;;8.75;4.32;;;9.30;99.90;;;;;;5071720;28;20032;-73
2022/10/07 05:29:26;;;;;;;18.00;5.13;;;9.40;99.90;;;;;;5071873;28;20048;-73
2022/10/07 05:31:52;;;;;;;16.63;4.85;;;9.50;99.90;;;;;;5071466;28;20746;-73
2022/10/07 05:34:19;;;;;;;18.23;5.95;;;9.40;99.90;;;;;;5071224;28;20040;-73
2022/10/07 05:36:44;;;;;;;9.23;4.68;;;9.50;99.90;;;;;;5071493;28;20529;-73
2022/10/07 05:39:10;;;;;;;19.25;5.47;;;9.50;99.90;;;;;;5071403;28;20041;-73
2022/10/07 05:41:36;;;;;;;14.15;5.03;;;9.40;99.90;;;;;;5071211;28;20037;-73
2022/10/07 05:44:02;;;;;;;16.48;4.88;;;9.40;99.90;;;;;;5071000;28;20037;-73
2022/10/07 05:46:27;;;;;;;14.20;5.13;;;9.40;99.90;;;;;;5071559;28;20433;-73
2022/10/07 05:48:53;;;;;;;9.65;5.45;;;9.50;99.90;;;;;;5071265;28;20510;-73
2022/10/07 05:51:20;;;;;;;15.48;5.63;;;9.60;99.90;;;;;;5072583;28;20032;-73
2022/10/07 05:53:46;;;;;;;12.93;4.93;;;9.40;99.90;;;;;;5070869;28;20068;-74
2022/10/07 05:56:20;;;;;;;18.25;5.30;;;9.50;99.90;;;;;;5071179;28;20040;-73
2022/10/07 05:58:46;;;;;;;20.85;5.97;;;9.50;99.90;;;;;;5072419;28;20041;-74
2022/10/07 06:01:15;;;;;;;13.00;4.82;;;9.50;99.90;;;;;;5071246;28;20036;-74
2022/10/07 06:03:42;;;;;;;24.75;5.75;;;9.50;99.90;;;;;;5070692;28;20051;-73
2022/10/07 06:06:07;;;;;;;15.02;5.10;;;9.60;99.90;;;;;;5071261;28;20040;-73
2022/10/07 06:08:34;;;;;;;19.05;5.80;;;9.60;99.90;;;;;;5070963;28;20055;-73
2022/10/07 06:13:49;;;;;;;16.02;5.75;;;9.60;99.90;;;;;;5070463;28;20089;-74
2022/10/07 06:16:16;;;;;;;17.83;5.10;;;9.50;99.90;;;;;;5070808;28;20041;-74
2022/10/07 06:18:41;;;;;;;16.75;5.93;;;9.60;99.90;;;;;;5054131;28;20055;-74
2022/10/07 06:21:07;;;;;;;17.40;6.15;;;9.70;99.90;;;;;;5070709;28;20037;-72
2022/10/07 06:23:33;;;;;;;16.77;5.10;;;9.70;99.90;;;;;;5070139;28;20040;-73
2022/10/07 06:26:01;;;;;;;15.38;4.88;;;9.60;99.90;;;;;;5071030;28;20043;-73
2022/10/07 06:28:38;;;;;;;16.58;5.88;;;9.80;99.90;;;;;;5067412;28;20036;-73
2022/10/07 06:31:09;;;;;;;21.55;6.57;;;9.80;99.90;;;;;;5070460;28;20040;-72
2022/10/07 06:33:34;;;;;;;17.40;5.97;;;9.80;99.90;;;;;;5070201;28;20063;-72
2022/10/07 06:36:09;;;;;;;16.40;5.43;;;10.00;99.90;;;;;;5071806;28;20044;-72
2022/10/07 06:38:35;;;;;;;14.77;5.63;;;9.90;99.90;;;;;;5070818;28;20072;-72
2022/10/07 06:41:02;;;;;;;17.60;5.45;;;9.90;99.90;;;;;;5070735;28;20075;-73
2022/10/07 06:43:30;;;;;;;19.38;6.18;;;10.20;99.90;;;;;;5070264;28;20131;-73
2022/10/07 06:45:57;;;;;;;17.55;5.70;;;10.20;99.90;;;;;;5070461;28;20545;-72
2022/10/07 06:48:24;;;;;;;16.80;5.80;;;10.30;99.90;;;;;;5070681;28;20062;-72
2022/10/07 06:50:53;;;;;;;18.08;5.97;;;10.40;99.90;;;;;;5070573;28;20048;-72
2022/10/07 06:53:20;;;;;;;18.25;6.72;;;10.70;99.90;;;;;;5053244;28;20036;-72
2022/10/07 06:55:45;;;;;;;17.08;5.30;;;10.80;99.90;;;;;;5070299;28;20490;-72
2022/10/07 06:58:11;;;;;;;12.30;4.97;;;11.00;99.90;;;;;;5071504;28;20086;-73
2022/10/07 07:00:37;;;;;;;18.10;5.30;;;11.30;99.90;;;;;;5070330;28;20036;-73
2022/10/07 07:03:04;;;;;;;19.70;5.82;;;11.50;99.90;;;;;;5069965;28;20063;-73
2022/10/07 07:05:38;;;;;;;17.60;5.28;;;11.70;99.90;;;;;;5070230;28;20045;-73
2022/10/07 07:08:04;;;;;;;18.30;5.32;;;11.60;99.90;;;;;;5070240;28;20040;-73
2022/10/07 07:10:30;;;;;;;19.58;6.05;;;11.50;99.90;;;;;;5071428;28;20044;-72
2022/10/07 07:12:56;;;;;;;22.70;5.40;;;11.80;99.90;;;;;;5070879;28;20076;-72
2022/10/07 07:15:22;;;;;;;15.50;5.00;;;11.90;99.90;;;;;;5071482;28;20087;-72
2022/10/07 07:17:48;;;;;;;21.05;5.22;;;12.10;99.90;;;;;;5071314;28;20520;-72
2022/10/07 07:20:14;;;;;;;16.35;5.07;;;12.20;99.90;;;;;;5071032;28;20525;-72
2022/10/07 07:22:40;;;;;;;19.77;4.68;;;12.40;99.90;;;;;;5069701;28;20044;-72
2022/10/07 07:25:08;;;;;;;22.33;5.00;;;12.50;99.90;;;;;;5069996;28;20080;-73
2022/10/07 07:27:34;;;;;;;12.77;4.53;;;12.70;99.90;;;;;;5071347;28;20520;-73
2022/10/07 07:30:00;;;;;;;15.50;4.85;;;12.90;99.90;;;;;;5070174;28;20048;-73
2022/10/07 07:32:28;;;;;;;18.90;4.10;;;13.00;99.90;;;;;;5069702;28;20508;-73
2022/10/07 07:34:54;;;;;;;13.95;4.35;;;13.20;99.90;;;;;;5069981;28;20044;-73
2022/10/07 07:37:20;;;;;;;19.23;5.55;;;13.40;99.90;;;;;;5072263;28;20032;-73
2022/10/07 07:39:46;;;;;;;12.30;5.00;;;13.50;99.90;;;;;;5073792;28;20498;-73
2022/10/07 07:42:11;;;;;;;14.13;4.50;;;13.70;99.90;;;;;;5074908;28;20039;-73
2022/10/07 07:44:37;;;;;;;16.15;4.07;;;13.80;99.90;;;;;;5073525;28;20482;-73
2022/10/07 07:47:03;;;;;;;22.85;6.30;;;13.90;99.90;;;;;;5074420;28;20048;-73
2022/10/07 07:49:31;;;;;;;15.80;5.25;;;14.10;99.90;;;;;;5073326;28;20102;-72
2022/10/07 07:51:57;;;;;;;11.85;4.22;;;14.20;99.90;;;;;;5073276;28;20040;-73
2022/10/07 07:54:27;;;;;;;9.43;3.33;;;14.30;99.90;;;;;;5073188;28;20037;-73
2022/10/07 07:56:54;;;;;;;9.75;3.15;;;14.30;99.90;;;;;;5073454;28;20032;-73
2022/10/07 07:59:20;;;;;;;14.25;3.30;;;14.40;99.90;;;;;;5073476;28;20066;-73
2022/10/07 08:01:46;;;;;;;17.77;4.22;;;14.40;99.90;;;;;;5074636;28;20045;-73
2022/10/07 08:04:12;;;;;;;12.98;4.45;;;14.30;99.90;;;;;;5073148;28;20037;-73
2022/10/07 08:06:39;;;;;;;11.18;2.97;;;14.40;99.90;;;;;;5074668;28;20037;-73
2022/10/07 08:09:05;;;;;;;14.82;3.50;;;14.40;99.90;;;;;;5073322;28;20044;-74
2022/10/07 08:11:33;;;;;;;13.75;3.38;;;14.60;99.90;;;;;;5074351;28;20082;-74
2022/10/07 08:13:59;;;;;;;17.17;4.85;;;14.60;99.90;;;;;;5072814;28;20089;-73
2022/10/07 08:16:27;;;;;;;14.75;5.43;;;14.70;99.90;;;;;;5073112;28;20119;-73
2022/10/07 08:18:55;;;;;;;14.90;3.65;;;14.80;99.90;;;;;;5073099;28;20116;-73
2022/10/07 08:21:24;;;;;;;17.83;4.45;;;14.80;99.90;;;;;;5073078;28;20044;-75
2022/10/07 08:23:56;;;;;;;14.48;3.80;;;14.90;99.90;;;;;;5072716;28;20040;-73
2022/10/07 08:26:22;;;;;;;12.32;3.38;;;14.70;99.90;;;;;;5072974;28;20091;-73
2022/10/07 08:28:48;;;;;;;16.98;3.50;;;14.60;99.90;;;;;;5074140;28;20043;-73
2022/10/07 08:31:16;;;;;;;11.25;4.13;;;14.70;99.90;;;;;;5072734;28;20040;-73
2022/10/07 08:33:44;;;;;;;11.30;4.07;;;14.80;99.90;;;;;;5072307;28;20037;-73
2022/10/07 08:36:18;;;;;;;14.32;4.32;;;14.90;99.90;;;;;;5072758;28;20040;-74
2022/10/07 08:38:45;;;;;;;17.83;3.92;;;15.00;99.90;;;;;;5072712;28;20573;-74
2022/10/07 08:41:40;;;;;;;14.00;3.60;;;14.80;99.90;;;;;;5073875;28;20490;-73
2022/10/07 08:44:16;;;;;;;12.63;5.25;;;14.90;99.90;;;;;;5073867;28;20391;-73
2022/10/07 08:46:55;;;;;;;11.82;3.45;;;14.90;99.90;;;;;;5072686;28;20467;-74
2022/10/07 08:49:29;;;;;;;12.75;3.10;;;14.90;99.90;;;;;;5073889;28;20512;-73
2022/10/07 08:52:17;;;;;;;17.52;3.83;;;14.90;99.90;;;;;;5072451;28;20054;-73
2022/10/07 08:54:43;;;;;;;14.55;3.25;;;15.00;99.90;;;;;;5072662;28;20107;-73
2022/10/07 08:57:30;;;;;;;18.77;3.33;;;14.90;99.90;;;;;;5073637;28;20042;-73
2022/10/07 09:00:00;;;;;;;14.95;3.70;;;15.00;99.90;;;;;;5072318;28;20037;-73
2022/10/07 09:02:34;;;;;;;12.82;3.65;;;15.10;99.90;;;;;;5073429;28;20037;-73
2022/10/07 09:05:00;;;;;;;16.58;4.00;;;15.00;99.90;;;;;;5073621;28;20124;-73
2022/10/07 09:07:46;;;;;;;15.98;3.55;;;15.00;99.90;;;;;;5072460;28;20076;-73
2022/10/07 09:10:58;;;;;;;12.07;3.63;;;15.10;99.90;;;;;;5072358;28;20051;-73
2022/10/07 09:13:29;;;;;;;14.65;3.25;;;15.20;99.90;;;;;;5067963;28;20052;-73
2022/10/07 09:15:59;;;;;;;14.85;3.42;;;15.20;99.90;;;;;;5073393;28;20079;-73
2022/10/07 09:18:40;;;;;;;12.90;2.92;;;15.30;99.90;;;;;;5071986;28;20526;-72
2022/10/07 09:21:18;;;;;;;10.07;3.17;;;15.40;99.90;;;;;;5073109;28;20367;-72
2022/10/07 09:23:45;;;;;;;12.13;3.75;;;15.30;99.90;;;;;;5072995;28;20098;-72
2022/10/07 09:26:13;;;;;;;11.80;3.30;;;15.30;99.90;;;;;;5071781;28;20075;-73
2022/10/07 09:28:39;;;;;;;14.13;3.50;;;15.40;99.90;;;;;;5073161;28;20040;-73
2022/10/07 09:31:06;;;;;;;12.07;3.17;;;15.40;99.90;;;;;;5072011;28;20090;-73
2022/10/07 09:33:36;;;;;;;9.23;3.22;;;15.40;99.90;;;;;;5071322;28;20032;-72
2022/10/07 09:36:08;;;;;;;13.55;3.80;;;15.60;99.90;;;;;;5073155;28;20045;-73
2022/10/07 09:38:37;;;;;;;16.93;2.83;;;15.60;99.90;;;;;;5071904;28;20127;-73
2022/10/07 09:41:16;;;;;;;14.30;4.50;;;15.50;99.90;;;;;;5071886;28;20083;-72
2022/10/07 09:44:13;;;;;;;17.33;3.55;;;15.50;99.90;;;;;;5071072;28;20051;-73
2022/10/07 09:46:52;;;;;;;11.32;2.63;;;15.50;99.90;;;;;;5063947;28;20106;-73
2022/10/07 09:49:27;;;;;;;11.18;3.25;;;15.60;99.90;;;;;;5071334;28;20619;-72
2022/10/07 09:52:03;;;;;;;17.67;3.17;;;15.60;99.90;;;;;;5072299;28;20505;-73
2022/10/07 09:54:31;;;;;;;15.10;3.70;;;15.60;99.90;;;;;;5071158;28;20079;-74
2022/10/07 09:56:59;;;;;;;11.57;3.60;;;15.60;99.90;;;;;;5071249;28;20036;-72
2022/10/07 09:59:28;;;;;;;11.25;3.45;;;15.60;99.90;;;;;;5070366;28;20115;-72
2022/10/07 10:01:57;;;;;;;11.95;3.78;;;15.70;99.90;;;;;;5071072;28;20044;-73
2022/10/07 10:04:36;;;;;;;11.38;3.35;;;15.70;99.90;;;;;;5071998;28;20559;-72
2022/10/07 10:07:17;;;;;;;15.05;3.72;;;15.70;99.90;;;;;;5071077;28;20036;-73
2022/10/07 10:10:09;;;;;;;15.90;4.25;;;15.80;99.90;;;;;;5072374;28;20064;-73
2022/10/07 10:12:45;;;;;;;13.88;3.30;;;15.80;99.90;;;;;;5068773;28;20052;-73
2022/10/07 10:15:23;;;;;;;15.38;3.70;;;15.70;99.90;;;;;;5070892;28;20071;-73
2022/10/07 10:17:49;;;;;;;10.48;3.60;;;15.70;99.90;;;;;;5070845;28;20048;-73
2022/10/07 10:20:37;;;;;;;13.70;3.17;;;15.60;99.90;;;;;;5072239;28;20089;-73
2022/10/07 10:23:34;;;;;;;9.65;3.13;;;15.70;99.90;;;;;;5070619;28;20181;-72
2022/10/07 10:26:28;;;;;;;19.52;3.45;;;15.50;99.90;;;;;;5072213;28;20143;-72
2022/10/07 10:28:57;;;;;;;14.98;4.50;;;15.50;99.90;;;;;;5034981;28;20567;-73
2022/10/07 10:31:42;;;;;;;12.63;3.25;;;15.60;99.90;;;;;;5054167;28;20048;-72
2022/10/07 10:34:30;;;;;;;19.80;3.10;;;15.50;99.90;;;;;;5070534;28;20120;-73
2022/10/07 10:37:04;;;;;;;11.82;3.42;;;15.70;99.90;;;;;;5070847;28;20108;-73
2022/10/07 10:39:39;;;;;;;13.77;3.03;;;15.80;99.90;;;;;;5071792;28;20494;-73
2022/10/07 10:42:11;;;;;;;10.38;3.60;;;15.90;99.90;;;;;;5070343;28;20075;-73
2022/10/07 10:44:41;;;;;;;17.08;3.45;;;16.00;99.90;;;;;;5070606;28;20116;-73
2022/10/07 10:47:34;;;;;;;15.27;2.97;;;16.00;99.90;;;;;;5070781;28;20059;-73
2022/10/07 10:50:33;;;;;;;15.73;2.80;;;16.10;99.90;;;;;;5070519;28;20052;-73
2022/10/07 10:53:16;;;;;;;14.98;2.70;;;16.10;99.90;;;;;;5069961;28;20045;-73
2022/10/07 10:56:00;;;;;;;10.30;3.20;;;16.00;99.90;;;;;;5071883;28;20055;-72
2022/10/07 10:58:30;;;;;;;16.70;3.28;;;16.00;99.90;;;;;;5070252;28;20044;-73
2022/10/07 11:01:14;;;;;;;15.93;2.83;;;16.10;99.90;;;;;;5071557;28;20469;-72
2022/10/07 11:04:10;;;;;;;9.23;2.58;;;16.10;99.90;;;;;;5070012;28;20087;-73
2022/10/07 11:06:39;;;;;;;12.05;2.55;;;16.10;99.90;;;;;;5070217;28;20406;-73
2022/10/07 11:09:07;;;;;;;21.77;3.58;;;16.20;99.90;;;;;;5071414;28;20124;-73
2022/10/07 11:11:34;;;;;;;14.40;3.47;;;16.30;99.90;;;;;;5074125;28;20056;-72
2022/10/07 11:14:06;;;;;;;14.55;3.05;;;16.30;99.90;;;;;;5074011;28;20040;-73
2022/10/07 11:16:43;;;;;;;15.23;2.72;;;16.40;99.90;;;;;;5075784;28;20045;-73
2022/10/07 11:19:19;;;;;;;14.30;3.42;;;16.40;99.90;;;;;;5074304;28;20068;-73
2022/10/07 11:21:51;;;;;;;9.43;2.47;;;16.40;99.90;;;;;;5075285;28;20525;-73
2022/10/07 11:24:34;;;;;;;14.00;2.47;;;16.40;99.90;;;;;;5073865;28;20037;-72
2022/10/07 11:27:09;;;;;;;14.50;3.28;;;16.40;99.90;;;;;;5074308;28;20563;-72
2022/10/07 11:30:01;;;;;;;12.38;2.80;;;16.50;99.90;;;;;;5074139;28;20047;-73
2022/10/07 11:32:41;;;;;;;14.05;2.70;;;16.40;99.90;;;;;;5075030;28;20079;-73
2022/10/07 11:35:30;;;;;;;14.20;3.25;;;16.50;99.90;;;;;;5075353;28;20085;-72
2022/10/07 11:38:15;;;;;;;12.07;2.33;;;16.50;99.90;;;;;;5073884;28;20041;-73
2022/10/07 11:41:06;;;;;;;11.90;2.67;;;16.50;99.90;;;;;;5073853;28;20127;-73
2022/10/07 11:43:46;;;;;;;10.50;2.53;;;16.50;99.90;;;;;;5073500;28;20083;-73
2022/10/07 11:46:21;;;;;;;11.48;2.75;;;16.50;99.90;;;;;;5073726;28;20448;-74
2022/10/07 11:48:52;;;;;;;11.13;2.30;;;16.60;99.90;;;;;;5073641;28;20098;-73
2022/10/07 11:51:29;;;;;;;10.27;2.80;;;16.60;99.90;;;;;;5074867;28;20038;-73
2022/10/07 11:53:58;;;;;;;7.63;1.92;;;16.80;99.90;;;;;;5056535;28;20040;-72
2022/10/07 11:56:25;;;;;;;11.52;2.58;;;16.80;99.90;;;;;;5074905;28;20044;-72
2022/10/07 11:59:00;;;;;;;8.43;2.00;;;16.80;99.90;;;;;;5074600;28;20489;-73
2022/10/07 12:01:29;;;;;;;9.32;2.00;;;16.90;99.90;;;;;;5073613;28;20037;-72
2022/10/07 12:03:59;;;;;;;9.18;1.83;;;16.90;99.90;;;;;;5074339;28;20441;-74
2022/10/07 12:06:24;;;;;;;13.45;3.95;;;16.90;99.90;;;;;;5073573;28;20075;-73
2022/10/07 12:08:52;;;;;;;9.98;1.92;;;17.00;99.90;;;;;;5074627;28;20494;-73
2022/10/07 12:11:17;;;;;;;9.88;2.50;;;17.10;99.90;;;;;;5073372;28;20101;-74
2022/10/07 12:13:43;;;;;;;12.32;2.97;;;17.10;99.90;;;;;;5073128;28;20040;-72
2022/10/07 12:16:30;;;;;;;10.65;2.67;;;17.20;99.90;;;;;;5074648;28;20044;-73
2022/10/07 12:19:09;;;;;;;10.02;2.45;;;17.20;99.90;;;;;;5073431;28;20071;-73
2022/10/07 12:22:13;;;;;;;10.27;2.50;;;17.20;99.90;;;;;;5072863;28;20040;-72
2022/10/07 12:24:42;;;;;;;8.70;1.98;;;17.20;99.90;;;;;;5072472;28;20044;-73
2022/10/07 12:27:23;;;;;;;10.50;2.10;;;17.20;99.90;;;;;;5073189;28;20571;-73
2022/10/07 12:30:01;;;;;;;12.27;2.75;;;17.10;99.90;;;;;;5072938;28;20037;-73
2022/10/07 12:32:41;;;;;;;10.07;2.38;;;17.10;99.90;;;;;;5072388;28;20041;-71
2022/10/07 12:35:28;;;;;;;8.77;2.10;;;17.00;99.90;;;;;;5072740;28;20520;-72
2022/10/07 12:38:09;;;;;;;13.40;2.90;;;16.90;99.90;;;;;;5072826;28;20599;-72
2022/10/07 12:40:36;;;;;;;13.20;2.72;;;16.90;99.90;;;;;;5072932;28;20044;-72
2022/10/07 12:43:24;;;;;;;11.23;2.53;;;16.80;99.90;;;;;;5073534;28;20044;-74
2022/10/07 12:45:51;;;;;;;12.77;3.40;;;16.70;99.90;;;;;;5072753;28;20045;-73
2022/10/07 12:48:20;;;;;;;5.95;2.15;;;16.80;99.90;;;;;;5074024;28;20051;-72
2022/10/07 12:50:49;;;;;;;11.02;2.20;;;16.80;99.90;;;;;;5072530;28;20525;-75
2022/10/07 12:53:18;;;;;;;10.18;2.72;;;16.80;99.90;;;;;;5073221;28;20044;-73
2022/10/07 12:55:50;;;;;;;8.90;2.80;;;16.70;99.90;;;;;;5072437;28;20056;-73
2022/10/07 13:01:17;;;;;;;10.45;2.35;;;16.70;99.90;;;;;;5073634;28;20067;-73
2022/10/07 13:04:15;;;;;;;9.15;2.03;;;16.80;99.90;;;;;;5073206;28;20094;-75
2022/10/07 13:07:09;;;;;;;11.90;2.47;;;16.80;99.90;;;;;;5072230;28;20414;-73
2022/10/07 13:10:19;;;;;;;10.27;2.10;;;16.60;99.90;;;;;;5072197;28;20044;-74
2022/10/07 13:12:50;;;;;;;12.35;2.03;;;16.60;99.90;;;;;;5057247;28;20047;-72
2022/10/07 13:15:41;;;;;;;8.85;2.40;;;16.50;99.90;;;;;;5072265;28;20498;-73